createdAt,value
2023-08-06T00:01:11.830Z,92880.44
2023-08-06T00:04:15.627Z,92880.44
2023-08-06T00:07:18.959Z,92885.22
2023-08-06T00:10:22.519Z,92881.84
2023-08-06T00:13:26.063Z,92885.16
2023-08-06T00:16:29.503Z,92883.13
2023-08-06T00:19:34.208Z,92885.00
2023-08-06T00:22:39.320Z,92876.88
2023-08-06T00:25:43.103Z,92874.88
2023-08-06T00:28:46.700Z,92887.72
2023-08-06T00:31:50.434Z,92878.22
2023-08-06T00:34:54.229Z,92887.63
2023-08-06T00:37:57.902Z,92881.44
2023-08-06T00:41:01.522Z,92885.41
2023-08-06T00:44:05.640Z,92883.97
2023-08-06T00:47:10.632Z,92882.59
2023-08-06T00:50:14.342Z,92884.53
2023-08-06T00:53:17.955Z,92881.09
2023-08-06T00:56:21.774Z,92876.34
2023-08-06T00:59:25.394Z,92884.38
2023-08-06T01:02:29.038Z,92875.41
2023-08-06T01:05:32.907Z,92878.72
2023-08-06T01:08:46.582Z,92886.84
2023-08-06T01:12:06.297Z,92888.09
2023-08-06T01:15:19.919Z,92886.66
2023-08-06T01:18:23.562Z,92883.94
2023-08-06T01:21:27.222Z,92884.59
2023-08-06T01:24:31.242Z,92886.66
2023-08-06T01:27:55.053Z,92891.19
2023-08-06T01:31:01.501Z,92883.81
2023-08-06T01:34:09.801Z,92881.81
2023-08-06T01:37:14.137Z,92887.97
2023-08-06T01:40:17.720Z,92889.19
2023-08-06T01:43:21.341Z,92885.69
2023-08-06T01:46:24.932Z,92888.41
2023-08-06T01:49:28.634Z,92880.88
2023-08-06T01:52:32.222Z,92891.13
2023-08-06T01:55:35.911Z,92887.19
2023-08-06T01:58:39.496Z,92893.34
2023-08-06T02:01:42.905Z,92906.28
2023-08-06T02:04:46.544Z,92907.69
2023-08-06T02:07:50.160Z,92908.34
2023-08-06T02:10:53.756Z,92904.25
2023-08-06T02:13:57.190Z,92912.31
2023-08-06T02:17:00.800Z,92907.56
2023-08-06T02:20:04.602Z,92903.47
2023-08-06T02:23:08.511Z,92910.22
2023-08-06T02:26:12.098Z,92896.63
2023-08-06T02:29:15.793Z,92896.50
2023-08-06T02:32:20.557Z,92894.38
2023-08-06T02:35:24.628Z,92903.75
2023-08-06T02:38:28.126Z,92904.28
2023-08-06T02:41:31.761Z,92900.81
2023-08-06T02:44:35.806Z,92905.44
2023-08-06T02:47:39.363Z,92903.91
2023-08-06T02:50:43.903Z,92894.91
2023-08-06T02:53:47.501Z,92897.47
2023-08-06T02:56:52.804Z,92896.63
2023-08-06T03:00:02.028Z,92893.13
2023-08-06T03:03:06.180Z,92907.91
2023-08-06T03:06:20.028Z,92901.63
2023-08-06T03:09:27.282Z,92909.06
2023-08-06T03:12:30.955Z,92908.34
2023-08-06T03:15:37.069Z,92906.25
2023-08-06T03:18:41.347Z,92909.78
2023-08-06T03:21:46.356Z,92903.03
2023-08-06T03:24:54.944Z,92906.34
2023-08-06T03:28:01.338Z,92900.91
2023-08-06T03:31:05.703Z,92895.97
2023-08-06T03:34:15.318Z,92895.38
2023-08-06T03:37:19.100Z,92896.34
2023-08-06T03:40:22.885Z,92904.78
2023-08-06T03:43:26.690Z,92896.28
2023-08-06T03:46:31.000Z,92894.63
2023-08-06T03:49:34.791Z,92889.22
2023-08-06T03:52:38.572Z,92887.16
2023-08-06T03:55:42.819Z,92895.38
2023-08-06T03:58:46.765Z,92894.69
2023-08-06T04:01:50.968Z,92894.59
2023-08-06T04:04:55.568Z,92891.13
2023-08-06T04:07:58.969Z,92884.22
2023-08-06T04:11:02.597Z,92887.00
2023-08-06T04:14:06.695Z,92890.41
2023-08-06T04:17:10.288Z,92892.66
2023-08-06T04:20:14.055Z,92894.03
2023-08-06T04:23:17.629Z,92892.84
2023-08-06T04:26:21.357Z,92897.03
2023-08-06T04:29:24.887Z,92888.88
2023-08-06T04:32:29.143Z,92891.06
2023-08-06T04:35:32.677Z,92893.25
2023-08-06T04:38:36.278Z,92890.69
2023-08-06T04:41:39.809Z,92891.63
2023-08-06T04:44:43.810Z,92897.72
2023-08-06T04:47:47.369Z,92886.19
2023-08-06T04:50:52.660Z,92880.09
2023-08-06T04:53:56.353Z,92873.34
2023-08-06T04:57:00.173Z,92883.56
2023-08-06T05:00:07.129Z,92887.53
2023-08-06T05:03:10.831Z,92885.94
2023-08-06T05:06:14.451Z,92892.53
2023-08-06T05:09:17.944Z,92882.16
2023-08-06T05:12:21.431Z,92895.16
2023-08-06T05:15:27.085Z,92884.88
2023-08-06T05:18:32.370Z,92903.78
2023-08-06T05:21:35.865Z,92897.31
2023-08-06T05:24:39.744Z,92901.16
2023-08-06T05:27:43.452Z,92896.16
2023-08-06T05:30:47.040Z,92890.59
2023-08-06T05:33:50.553Z,92894.66
2023-08-06T05:36:54.706Z,92887.19
2023-08-06T05:39:58.296Z,92884.44
2023-08-06T05:43:01.861Z,92885.00
2023-08-06T05:46:05.972Z,92887.16
2023-08-06T05:49:09.506Z,92880.59
2023-08-06T05:52:12.987Z,92876.88
2023-08-06T05:55:16.605Z,92886.16
2023-08-06T05:58:22.025Z,92888.34
2023-08-06T06:01:26.083Z,92881.56
2023-08-06T06:04:31.380Z,92891.19
2023-08-06T06:07:34.669Z,92884.53
2023-08-06T06:10:38.319Z,92893.56
2023-08-06T06:13:42.047Z,92899.47
2023-08-06T06:16:45.550Z,92893.16
2023-08-06T06:19:48.997Z,92885.53
2023-08-06T06:22:52.622Z,92891.38
2023-08-06T06:25:57.478Z,92895.81
2023-08-06T06:29:01.653Z,92887.31
2023-08-06T06:32:05.265Z,92893.56
2023-08-06T06:35:09.409Z,92907.53
2023-08-06T06:38:12.773Z,92880.19
2023-08-06T06:41:16.376Z,92894.03
2023-08-06T06:44:22.141Z,92885.66
2023-08-06T06:47:25.818Z,92885.50
2023-08-06T06:50:29.499Z,92891.50
2023-08-06T06:53:33.082Z,92890.00
2023-08-06T06:56:36.628Z,92890.16
2023-08-06T06:59:40.485Z,92890.22
2023-08-06T07:02:43.969Z,92898.06
2023-08-06T07:05:47.564Z,92891.38
2023-08-06T07:08:51.483Z,92892.91
2023-08-06T07:11:55.256Z,92891.25
2023-08-06T07:14:59.093Z,92891.56
2023-08-06T07:18:02.942Z,92903.16
2023-08-06T07:21:06.585Z,92902.66
2023-08-06T07:24:10.270Z,92906.91
2023-08-06T07:27:13.750Z,92911.78
2023-08-06T07:30:17.512Z,92909.81
2023-08-06T07:33:21.007Z,92912.44
2023-08-06T07:36:24.559Z,92915.25
2023-08-06T07:39:30.258Z,92915.19
2023-08-06T07:42:33.893Z,92911.28
2023-08-06T07:45:37.669Z,92916.31
2023-08-06T07:48:41.500Z,92912.34
2023-08-06T07:51:44.995Z,92910.34
2023-08-06T07:54:48.559Z,92907.03
2023-08-06T07:57:52.226Z,92907.03
2023-08-06T08:00:55.608Z,92906.97
2023-08-06T08:03:59.230Z,92917.22
2023-08-06T08:07:02.801Z,92917.22
2023-08-06T08:10:07.180Z,92921.28
2023-08-06T08:13:10.778Z,92928.69
2023-08-06T08:16:14.458Z,92926.84
2023-08-06T08:19:17.907Z,92920.03
2023-08-06T08:22:21.736Z,92926.13
2023-08-06T08:25:25.294Z,92933.16
2023-08-06T08:28:28.720Z,92925.06
2023-08-06T08:31:32.513Z,92928.50
2023-08-06T08:34:35.936Z,92927.09
2023-08-06T08:37:39.606Z,92931.06
2023-08-06T08:40:49.333Z,92939.84
2023-08-06T08:43:53.602Z,92928.50
2023-08-06T08:46:57.583Z,92935.91
2023-08-06T08:50:02.911Z,92942.03
2023-08-06T08:53:07.317Z,92929.00
2023-08-06T08:56:12.705Z,92932.47
2023-08-06T08:59:16.294Z,92925.13
2023-08-06T09:02:23.146Z,92929.81
2023-08-06T09:05:30.725Z,92934.44
2023-08-06T09:08:39.981Z,92932.47
2023-08-06T09:11:46.229Z,92929.69
2023-08-06T09:14:49.680Z,92933.03
2023-08-06T09:17:54.920Z,92926.03
2023-08-06T09:20:59.660Z,92924.00
2023-08-06T09:24:03.405Z,92929.44
2023-08-06T09:27:07.024Z,92923.31
2023-08-06T09:30:10.959Z,92930.03
2023-08-06T09:33:20.877Z,92910.22
2023-08-06T09:36:24.413Z,92916.38
2023-08-06T09:39:32.401Z,92919.53
2023-08-06T09:42:38.941Z,92918.78
2023-08-06T09:45:42.539Z,92918.81
2023-08-06T09:48:49.253Z,92915.41
2023-08-06T09:51:55.939Z,92912.19
2023-08-06T09:55:00.310Z,92915.78
2023-08-06T09:58:04.911Z,92924.00
2023-08-06T10:01:08.777Z,92919.09
2023-08-06T10:04:23.333Z,92913.66
2023-08-06T10:07:29.244Z,92922.66
2023-08-06T10:10:33.584Z,92920.75
2023-08-06T10:13:38.282Z,92923.47
2023-08-06T10:16:44.080Z,92925.31
2023-08-06T10:19:49.328Z,92917.09
2023-08-06T10:23:06.753Z,92916.31
2023-08-06T10:26:10.809Z,92921.09
2023-08-06T10:29:39.374Z,92921.53
2023-08-06T10:32:51.125Z,92922.19
2023-08-06T10:36:06.590Z,92918.78
2023-08-06T10:39:25.890Z,92924.22
2023-08-06T10:42:34.501Z,92924.34
2023-08-06T10:45:39.767Z,92929.25
2023-08-06T10:48:47.434Z,92931.31
2023-08-06T10:51:51.247Z,92924.53
2023-08-06T10:54:57.377Z,92927.97
2023-08-06T10:58:01.233Z,92926.03
2023-08-06T11:01:04.758Z,92930.94
2023-08-06T11:04:08.426Z,92927.72
2023-08-06T11:07:12.421Z,92918.44
2023-08-06T11:10:16.302Z,92927.84
2023-08-06T11:13:20.598Z,92930.63
2023-08-06T11:16:28.673Z,92929.91
2023-08-06T11:19:32.265Z,92932.06
2023-08-06T11:22:35.842Z,92930.72
2023-08-06T11:25:45.843Z,92941.06
2023-08-06T11:28:49.410Z,92934.31
2023-08-06T11:31:53.300Z,92932.38
2023-08-06T11:34:58.067Z,92938.00
2023-08-06T11:38:02.631Z,92936.09
2023-08-06T11:41:08.558Z,92939.56
2023-08-06T11:44:17.861Z,92935.47
2023-08-06T11:47:22.136Z,92940.91
2023-08-06T11:50:29.496Z,92949.75
2023-08-06T11:53:33.141Z,92946.53
2023-08-06T11:56:37.242Z,92949.34
2023-08-06T11:59:41.536Z,92945.97
2023-08-06T12:02:47.162Z,92944.81
2023-08-06T12:05:50.788Z,92955.69
2023-08-06T12:08:54.200Z,92959.84
2023-08-06T12:11:58.980Z,92963.28
2023-08-06T12:15:03.166Z,92964.69
2023-08-06T12:18:08.029Z,92970.16
2023-08-06T12:21:11.665Z,92969.56
2023-08-06T12:24:15.224Z,92969.59
2023-08-06T12:27:19.408Z,92977.06
2023-08-06T12:30:23.365Z,92976.41
2023-08-06T12:33:27.287Z,92975.81
2023-08-06T12:36:31.091Z,92982.63
2023-08-06T12:39:34.766Z,92990.09
2023-08-06T12:42:38.278Z,92989.38
2023-08-06T12:45:41.877Z,92987.41
2023-08-06T12:48:45.546Z,92986.13
2023-08-06T12:51:50.348Z,92990.19
2023-08-06T12:54:53.871Z,92988.91
2023-08-06T12:57:58.656Z,92991.00
2023-08-06T13:01:02.518Z,92985.03
2023-08-06T13:04:19.768Z,92993.16
2023-08-06T13:07:25.738Z,92991.06
2023-08-06T13:10:30.961Z,92989.78
2023-08-06T13:13:34.400Z,92991.19
2023-08-06T13:16:39.553Z,92997.28
2023-08-06T13:19:43.417Z,92997.38
2023-08-06T13:22:48.296Z,93004.19
2023-08-06T13:25:51.740Z,93008.34
2023-08-06T13:28:55.377Z,93011.03
2023-08-06T13:31:58.984Z,93012.44
2023-08-06T13:35:02.857Z,93009.75
2023-08-06T13:38:06.709Z,93015.22
2023-08-06T13:41:10.298Z,93017.44
2023-08-06T13:44:15.955Z,93014.03
2023-08-06T13:47:19.753Z,93012.13
2023-08-06T13:50:24.085Z,93009.50
2023-08-06T13:53:31.767Z,93016.97
2023-08-06T13:56:36.802Z,93014.97
2023-08-06T13:59:40.856Z,93016.97
2023-08-06T14:02:46.245Z,93015.63
2023-08-06T14:05:50.630Z,93017.00
2023-08-06T14:08:54.252Z,93012.97
2023-08-06T14:11:57.949Z,93016.41
2023-08-06T14:15:01.442Z,93010.41
2023-08-06T14:18:05.134Z,93013.84
2023-08-06T14:21:08.598Z,93020.72
2023-08-06T14:24:12.337Z,93016.72
2023-08-06T14:27:15.906Z,93023.56
2023-08-06T14:30:20.178Z,93020.25
2023-08-06T14:33:27.893Z,93027.72
2023-08-06T14:36:31.786Z,93032.53
2023-08-06T14:39:35.039Z,93030.50
2023-08-06T14:42:38.644Z,93037.28
2023-08-06T14:45:42.341Z,93035.28
2023-08-06T14:48:46.005Z,93027.91
2023-08-06T14:51:49.508Z,93031.41
2023-08-06T14:54:54.194Z,93031.50
2023-08-06T14:57:58.040Z,93025.41
2023-08-06T15:01:01.676Z,93030.19
2023-08-06T15:04:05.477Z,93027.56
2023-08-06T15:07:11.459Z,93021.50
2023-08-06T15:10:26.620Z,93024.94
2023-08-06T15:13:31.902Z,93014.22
2023-08-06T15:16:38.532Z,93022.31
2023-08-06T15:19:42.138Z,93017.00
2023-08-06T15:22:45.815Z,93013.72
2023-08-06T15:25:49.438Z,93017.91
2023-08-06T15:28:52.942Z,93019.94
2023-08-06T15:31:56.731Z,93024.78
2023-08-06T15:35:00.594Z,93018.84
2023-08-06T15:38:04.199Z,93019.63
2023-08-06T15:41:07.622Z,93019.09
2023-08-06T15:44:11.251Z,93015.06
2023-08-06T15:47:15.252Z,93023.25
2023-08-06T15:50:18.892Z,93022.69
2023-08-06T15:53:22.536Z,93022.75
2023-08-06T15:56:26.357Z,93023.56
2023-08-06T15:59:31.764Z,93029.69
2023-08-06T16:02:35.747Z,93027.69
2023-08-06T16:05:39.380Z,93036.53
2023-08-06T16:08:42.904Z,93025.22
2023-08-06T16:11:47.157Z,93022.50
2023-08-06T16:14:51.298Z,93021.09
2023-08-06T16:17:54.881Z,93019.88
2023-08-06T16:20:58.491Z,93019.94
2023-08-06T16:24:02.416Z,93021.97
2023-08-06T16:27:06.520Z,93024.03
2023-08-06T16:30:10.663Z,93020.00
2023-08-06T16:33:14.536Z,93017.28
2023-08-06T16:36:18.202Z,93018.69
2023-08-06T16:39:23.209Z,93013.34
2023-08-06T16:42:26.826Z,93014.09
2023-08-06T16:45:32.431Z,93016.72
2023-08-06T16:48:37.842Z,93017.50
2023-08-06T16:51:41.087Z,93018.16
2023-08-06T16:54:44.797Z,93013.44
2023-08-06T16:57:48.551Z,93009.44
2023-08-06T17:00:52.200Z,93010.78
2023-08-06T17:03:57.021Z,93006.72
2023-08-06T17:07:00.575Z,93012.81
2023-08-06T17:10:04.842Z,93009.38
2023-08-06T17:13:19.234Z,93008.06
2023-08-06T17:16:24.391Z,93012.81
2023-08-06T17:19:27.809Z,93007.41
2023-08-06T17:22:31.526Z,93008.00
2023-08-06T17:25:37.251Z,93013.34
2023-08-06T17:28:40.789Z,93010.03
2023-08-06T17:31:44.425Z,93018.91
2023-08-06T17:34:47.952Z,93016.16
2023-08-06T17:37:51.503Z,93010.75
2023-08-06T17:40:57.275Z,93017.50
2023-08-06T17:44:00.851Z,93013.50
2023-08-06T17:47:04.790Z,93015.56
2023-08-06T17:50:08.601Z,93012.91
2023-08-06T17:53:12.177Z,93008.25
2023-08-06T17:56:17.274Z,93015.66
2023-08-06T17:59:20.975Z,93017.72
2023-08-06T18:02:24.652Z,93018.41
2023-08-06T18:05:32.467Z,93017.84
2023-08-06T18:08:36.105Z,93017.25
2023-08-06T18:11:39.502Z,93007.06
2023-08-06T18:14:43.741Z,93010.50
2023-08-06T18:17:48.414Z,93001.78
2023-08-06T18:20:52.025Z,93007.91
2023-08-06T18:23:55.526Z,92999.19
2023-08-06T18:26:59.463Z,93000.03
2023-08-06T18:30:03.065Z,93010.19
2023-08-06T18:33:06.639Z,93004.84
2023-08-06T18:36:11.360Z,93015.81
2023-08-06T18:39:15.189Z,93019.31
2023-08-06T18:42:19.119Z,93022.81
2023-08-06T18:45:22.687Z,93025.59
2023-08-06T18:48:27.319Z,93031.72
2023-08-06T18:51:30.967Z,93032.38
2023-08-06T18:54:34.461Z,93036.50
2023-08-06T18:57:38.365Z,93040.50
2023-08-06T19:00:42.495Z,93045.22
2023-08-06T19:03:46.073Z,93043.22
2023-08-06T19:06:49.793Z,93046.56
2023-08-06T19:09:53.280Z,93049.94
2023-08-06T19:13:00.203Z,93053.34
2023-08-06T19:16:03.947Z,93053.34
2023-08-06T19:19:07.542Z,93047.25
2023-08-06T19:22:12.100Z,93053.34
2023-08-06T19:25:15.652Z,93054.03
2023-08-06T19:28:21.074Z,93052.69
2023-08-06T19:31:24.676Z,93056.72
2023-08-06T19:34:28.337Z,93058.13
2023-08-06T19:37:31.860Z,93063.50
2023-08-06T19:40:35.359Z,93064.84
2023-08-06T19:43:39.458Z,93070.25
2023-08-06T19:46:42.902Z,93065.53
2023-08-06T19:49:46.399Z,93068.31
2023-08-06T19:52:49.969Z,93071.03
2023-08-06T19:55:53.548Z,93070.41
2023-08-06T19:58:57.358Z,93069.72
2023-08-06T20:02:00.853Z,93072.44
2023-08-06T20:05:05.258Z,93068.44
2023-08-06T20:08:08.729Z,93065.06
2023-08-06T20:11:12.523Z,93063.81
2023-08-06T20:14:16.645Z,93063.13
2023-08-06T20:17:20.117Z,93073.25
2023-08-06T20:20:23.659Z,93071.91
2023-08-06T20:23:28.055Z,93066.59
2023-08-06T20:26:31.658Z,93065.25
2023-08-06T20:29:36.411Z,93065.28
2023-08-06T20:32:40.551Z,93064.59
2023-08-06T20:35:44.414Z,93061.94
2023-08-06T20:38:47.807Z,93061.25
2023-08-06T20:41:51.502Z,93056.56
2023-08-06T20:44:54.921Z,93062.59
2023-08-06T20:47:58.706Z,93058.63
2023-08-06T20:51:02.211Z,93062.75
2023-08-06T20:54:05.980Z,93056.63
2023-08-06T20:57:09.664Z,93060.75
2023-08-06T21:00:15.397Z,93059.44
2023-08-06T21:03:18.903Z,93062.81
2023-08-06T21:06:22.262Z,93065.50
2023-08-06T21:09:25.909Z,93062.13
2023-08-06T21:12:29.313Z,93068.19
2023-08-06T21:15:32.858Z,93066.16
2023-08-06T21:18:36.764Z,93064.09
2023-08-06T21:21:41.707Z,93064.19
2023-08-06T21:24:45.465Z,93060.13
2023-08-06T21:27:49.861Z,93058.84
2023-08-06T21:31:01.020Z,93062.84
2023-08-06T21:34:04.611Z,93069.59
2023-08-06T21:37:08.248Z,93064.91
2023-08-06T21:40:12.635Z,93068.19
2023-08-06T21:43:16.343Z,93064.09
2023-08-06T21:46:21.871Z,93062.22
2023-08-06T21:49:25.849Z,93069.63
2023-08-06T21:52:29.423Z,93071.00
2023-08-06T21:55:34.019Z,93076.41
2023-08-06T21:58:51.114Z,93069.00
2023-08-06T22:01:54.939Z,93071.00
2023-08-06T22:04:58.520Z,93073.03
2023-08-06T22:08:02.110Z,93081.03
2023-08-06T22:11:06.148Z,93081.03
2023-08-06T22:14:09.603Z,93082.41
2023-08-06T22:17:13.638Z,93074.28
2023-08-06T22:20:17.865Z,93082.28
2023-08-06T22:23:21.298Z,93082.25
2023-08-06T22:26:24.843Z,93081.50
2023-08-06T22:29:28.296Z,93093.63
2023-08-06T22:32:31.983Z,93101.66
2023-08-06T22:35:35.496Z,93098.88
2023-08-06T22:38:39.172Z,93090.69
2023-08-06T22:41:42.757Z,93095.34
2023-08-06T22:44:46.197Z,93093.94
2023-08-06T22:47:50.088Z,93093.91
2023-08-06T22:50:54.273Z,93097.28
2023-08-06T22:53:57.792Z,93098.72
2023-08-06T22:57:01.601Z,93102.09
2023-08-06T23:00:06.232Z,93099.47
2023-08-06T23:03:12.898Z,93107.44
2023-08-06T23:06:17.159Z,93108.16
2023-08-06T23:09:20.843Z,93102.69
2023-08-06T23:12:24.458Z,93111.41
2023-08-06T23:15:28.076Z,93108.56
2023-08-06T23:18:31.621Z,93117.09
2023-08-06T23:21:35.136Z,93116.94
2023-08-06T23:24:38.730Z,93112.19
2023-08-06T23:27:42.292Z,93118.13
2023-08-06T23:30:50.914Z,93125.59
2023-08-06T23:33:54.521Z,93126.13
2023-08-06T23:36:58.212Z,93121.84
2023-08-06T23:40:01.939Z,93123.78
2023-08-06T23:43:05.536Z,93121.00
2023-08-06T23:46:09.017Z,93118.13
2023-08-06T23:49:12.585Z,93115.84
2023-08-06T23:52:16.083Z,93114.13
2023-08-06T23:55:19.819Z,93117.31
2023-08-06T23:58:23.659Z,93119.88
